sensor_id;sensor_type;location;lat;lon;timestamp;P1;durP1;ratioP1;P2;durP2;ratioP2
21591;SDS011;10958;50.892;3.992;2023-05-29T00:01:23;23.13;;;8.98;;
21591;SDS011;10958;50.892;3.992;2023-05-29T00:03:49;17.05;;;8.93;;
21591;SDS011;10958;50.892;3.992;2023-05-29T00:06:14;15.68;;;8.88;;
21591;SDS011;10958;50.892;3.992;2023-05-29T00:08:41;15.15;;;8.80;;
21591;SDS011;10958;50.892;3.992;2023-05-29T00:11:07;19.33;;;8.38;;
21591;SDS011;10958;50.892;3.992;2023-05-29T00:13:35;18.63;;;9.38;;
21591;SDS011;10958;50.892;3.992;2023-05-29T00:16:01;16.33;;;8.45;;
21591;SDS011;10958;50.892;3.992;2023-05-29T00:18:28;21.48;;;9.02;;
21591;SDS011;10958;50.892;3.992;2023-05-29T00:20:54;18.00;;;9.10;;
21591;SDS011;10958;50.892;3.992;2023-05-29T00:23:20;17.08;;;8.60;;
21591;SDS011;10958;50.892;3.992;2023-05-29T00:25:46;16.05;;;8.63;;
21591;SDS011;10958;50.892;3.992;2023-05-29T00:28:14;15.50;;;8.38;;
21591;SDS011;10958;50.892;3.992;2023-05-29T00:30:40;16.60;;;8.60;;
21591;SDS011;10958;50.892;3.992;2023-05-29T00:33:06;13.75;;;8.90;;
21591;SDS011;10958;50.892;3.992;2023-05-29T00:35:33;16.88;;;8.07;;
21591;SDS011;10958;50.892;3.992;2023-05-29T00:37:59;14.20;;;8.52;;
21591;SDS011;10958;50.892;3.992;2023-05-29T00:40:25;15.90;;;8.88;;
21591;SDS011;10958;50.892;3.992;2023-05-29T00:42:50;17.08;;;8.93;;
21591;SDS011;10958;50.892;3.992;2023-05-29T00:45:16;14.65;;;9.30;;
21591;SDS011;10958;50.892;3.992;2023-05-29T00:47:43;18.20;;;9.55;;
21591;SDS011;10958;50.892;3.992;2023-05-29T00:50:10;19.42;;;8.93;;
21591;SDS011;10958;50.892;3.992;2023-05-29T00:52:41;17.48;;;8.13;;
21591;SDS011;10958;50.892;3.992;2023-05-29T00:55:09;18.23;;;8.50;;
21591;SDS011;10958;50.892;3.992;2023-05-29T00:57:35;13.88;;;8.05;;
21591;SDS011;10958;50.892;3.992;2023-05-29T01:00:02;17.65;;;8.23;;
21591;SDS011;10958;50.892;3.992;2023-05-29T01:02:31;17.63;;;8.10;;
21591;SDS011;10958;50.892;3.992;2023-05-29T01:04:56;15.77;;;9.50;;
21591;SDS011;10958;50.892;3.992;2023-05-29T01:07:23;15.45;;;8.48;;
21591;SDS011;10958;50.892;3.992;2023-05-29T01:09:51;18.00;;;9.10;;
21591;SDS011;10958;50.892;3.992;2023-05-29T01:13:47;16.50;;;9.23;;
21591;SDS011;10958;50.892;3.992;2023-05-29T01:16:38;15.73;;;8.40;;
21591;SDS011;10958;50.892;3.992;2023-05-29T01:19:10;15.63;;;8.32;;
21591;SDS011;10958;50.892;3.992;2023-05-29T01:27:39;18.67;;;9.43;;
21591;SDS011;10958;50.892;3.992;2023-05-29T01:30:07;14.82;;;7.90;;
21591;SDS011;10958;50.892;3.992;2023-05-29T01:32:34;16.23;;;8.02;;
21591;SDS011;10958;50.892;3.992;2023-05-29T01:35:01;14.00;;;8.18;;
21591;SDS011;10958;50.892;3.992;2023-05-29T01:37:26;17.02;;;7.70;;
21591;SDS011;10958;50.892;3.992;2023-05-29T01:39:52;13.18;;;7.38;;
21591;SDS011;10958;50.892;3.992;2023-05-29T01:42:18;17.00;;;8.05;;
21591;SDS011;10958;50.892;3.992;2023-05-29T01:44:44;18.77;;;7.40;;
21591;SDS011;10958;50.892;3.992;2023-05-29T01:47:12;15.45;;;6.85;;
21591;SDS011;10958;50.892;3.992;2023-05-29T01:49:38;16.70;;;8.07;;
21591;SDS011;10958;50.892;3.992;2023-05-29T01:52:06;15.75;;;7.55;;
21591;SDS011;10958;50.892;3.992;2023-05-29T01:54:35;17.95;;;7.93;;
21591;SDS011;10958;50.892;3.992;2023-05-29T01:57:05;15.25;;;7.20;;
21591;SDS011;10958;50.892;3.992;2023-05-29T02:02:05;11.90;;;7.00;;
21591;SDS011;10958;50.892;3.992;2023-05-29T02:04:31;16.85;;;7.55;;
21591;SDS011;10958;50.892;3.992;2023-05-29T02:06:57;18.05;;;7.28;;
21591;SDS011;10958;50.892;3.992;2023-05-29T02:09:25;14.82;;;6.28;;
21591;SDS011;10958;50.892;3.992;2023-05-29T02:11:51;14.93;;;6.22;;
21591;SDS011;10958;50.892;3.992;2023-05-29T02:14:17;13.38;;;5.60;;
21591;SDS011;10958;50.892;3.992;2023-05-29T02:16:43;12.15;;;5.68;;
21591;SDS011;10958;50.892;3.992;2023-05-29T02:19:09;16.73;;;6.07;;
21591;SDS011;10958;50.892;3.992;2023-05-29T02:21:39;11.57;;;5.40;;
21591;SDS011;10958;50.892;3.992;2023-05-29T02:24:06;11.20;;;5.30;;
21591;SDS011;10958;50.892;3.992;2023-05-29T02:26:32;12.80;;;5.13;;
21591;SDS011;10958;50.892;3.992;2023-05-29T02:28:58;15.30;;;4.50;;
21591;SDS011;10958;50.892;3.992;2023-05-29T02:31:26;15.55;;;4.85;;
21591;SDS011;10958;50.892;3.992;2023-05-29T02:33:52;11.70;;;5.07;;
21591;SDS011;10958;50.892;3.992;2023-05-29T02:36:18;12.30;;;4.30;;
21591;SDS011;10958;50.892;3.992;2023-05-29T02:38:44;12.20;;;4.13;;
21591;SDS011;10958;50.892;3.992;2023-05-29T02:41:09;10.55;;;4.25;;
21591;SDS011;10958;50.892;3.992;2023-05-29T02:43:35;12.90;;;4.03;;
21591;SDS011;10958;50.892;3.992;2023-05-29T02:46:01;17.23;;;4.63;;
21591;SDS011;10958;50.892;3.992;2023-05-29T02:48:27;11.65;;;4.00;;
21591;SDS011;10958;50.892;3.992;2023-05-29T02:50:54;13.45;;;4.00;;
21591;SDS011;10958;50.892;3.992;2023-05-29T02:53:19;15.88;;;3.85;;
21591;SDS011;10958;50.892;3.992;2023-05-29T02:55:45;12.50;;;4.43;;
21591;SDS011;10958;50.892;3.992;2023-05-29T02:58:11;15.82;;;3.95;;
21591;SDS011;10958;50.892;3.992;2023-05-29T03:00:37;18.02;;;4.25;;
21591;SDS011;10958;50.892;3.992;2023-05-29T03:03:03;14.00;;;3.90;;
21591;SDS011;10958;50.892;3.992;2023-05-29T03:05:29;18.90;;;3.90;;
21591;SDS011;10958;50.892;3.992;2023-05-29T03:07:55;14.88;;;3.75;;
21591;SDS011;10958;50.892;3.992;2023-05-29T03:10:21;16.52;;;4.10;;
21591;SDS011;10958;50.892;3.992;2023-05-29T03:12:47;10.75;;;3.58;;
21591;SDS011;10958;50.892;3.992;2023-05-29T03:15:13;13.80;;;3.75;;
21591;SDS011;10958;50.892;3.992;2023-05-29T03:17:40;13.43;;;4.07;;
21591;SDS011;10958;50.892;3.992;2023-05-29T03:20:06;11.43;;;3.45;;
21591;SDS011;10958;50.892;3.992;2023-05-29T03:22:33;19.20;;;4.32;;
21591;SDS011;10958;50.892;3.992;2023-05-29T03:25:01;10.93;;;3.85;;
21591;SDS011;10958;50.892;3.992;2023-05-29T03:27:32;14.18;;;3.47;;
21591;SDS011;10958;50.892;3.992;2023-05-29T03:29:58;21.42;;;3.85;;
21591;SDS011;10958;50.892;3.992;2023-05-29T03:32:24;17.65;;;3.15;;
21591;SDS011;10958;50.892;3.992;2023-05-29T03:34:50;9.52;;;3.28;;
21591;SDS011;10958;50.892;3.992;2023-05-29T03:37:16;12.30;;;3.35;;
21591;SDS011;10958;50.892;3.992;2023-05-29T03:39:41;14.30;;;3.63;;
21591;SDS011;10958;50.892;3.992;2023-05-29T03:42:10;15.73;;;3.10;;
21591;SDS011;10958;50.892;3.992;2023-05-29T03:44:35;13.02;;;3.20;;
21591;SDS011;10958;50.892;3.992;2023-05-29T03:47:01;17.23;;;3.60;;
21591;SDS011;10958;50.892;3.992;2023-05-29T03:49:27;12.90;;;3.25;;
21591;SDS011;10958;50.892;3.992;2023-05-29T03:51:53;12.23;;;3.20;;
21591;SDS011;10958;50.892;3.992;2023-05-29T03:54:19;12.32;;;2.95;;
21591;SDS011;10958;50.892;3.992;2023-05-29T03:56:45;12.70;;;3.40;;
21591;SDS011;10958;50.892;3.992;2023-05-29T03:59:10;13.80;;;3.00;;
21591;SDS011;10958;50.892;3.992;2023-05-29T04:01:36;13.23;;;3.00;;
21591;SDS011;10958;50.892;3.992;2023-05-29T04:04:02;10.00;;;2.97;;
21591;SDS011;10958;50.892;3.992;2023-05-29T04:06:30;11.38;;;3.05;;
21591;SDS011;10958;50.892;3.992;2023-05-29T04:08:56;12.88;;;3.00;;
21591;SDS011;10958;50.892;3.992;2023-05-29T04:11:21;14.93;;;2.88;;
21591;SDS011;10958;50.892;3.992;2023-05-29T04:13:47;10.75;;;2.70;;
21591;SDS011;10958;50.892;3.992;2023-05-29T04:16:13;11.52;;;2.70;;
21591;SDS011;10958;50.892;3.992;2023-05-29T04:18:39;13.45;;;3.10;;
21591;SDS011;10958;50.892;3.992;2023-05-29T04:21:05;8.10;;;2.25;;
21591;SDS011;10958;50.892;3.992;2023-05-29T04:23:31;15.13;;;2.97;;
21591;SDS011;10958;50.892;3.992;2023-05-29T04:25:57;14.70;;;3.17;;
21591;SDS011;10958;50.892;3.992;2023-05-29T04:28:23;17.70;;;3.55;;
21591;SDS011;10958;50.892;3.992;2023-05-29T04:30:51;8.90;;;3.28;;
21591;SDS011;10958;50.892;3.992;2023-05-29T04:33:17;11.88;;;3.13;;
21591;SDS011;10958;50.892;3.992;2023-05-29T04:35:45;12.05;;;2.83;;
21591;SDS011;10958;50.892;3.992;2023-05-29T04:38:13;14.05;;;2.95;;
21591;SDS011;10958;50.892;3.992;2023-05-29T04:40:39;12.90;;;2.90;;
21591;SDS011;10958;50.892;3.992;2023-05-29T04:43:05;9.27;;;2.60;;
21591;SDS011;10958;50.892;3.992;2023-05-29T04:45:31;13.52;;;3.35;;
21591;SDS011;10958;50.892;3.992;2023-05-29T04:47:57;15.30;;;2.70;;
21591;SDS011;10958;50.892;3.992;2023-05-29T04:50:23;11.70;;;2.92;;
21591;SDS011;10958;50.892;3.992;2023-05-29T04:52:49;11.45;;;2.85;;
21591;SDS011;10958;50.892;3.992;2023-05-29T04:55:15;14.32;;;3.10;;
21591;SDS011;10958;50.892;3.992;2023-05-29T04:57:43;12.48;;;3.10;;
21591;SDS011;10958;50.892;3.992;2023-05-29T05:00:09;13.75;;;3.00;;
21591;SDS011;10958;50.892;3.992;2023-05-29T05:02:40;15.00;;;2.97;;
21591;SDS011;10958;50.892;3.992;2023-05-29T05:05:07;14.27;;;2.55;;
21591;SDS011;10958;50.892;3.992;2023-05-29T05:07:34;11.85;;;2.65;;
21591;SDS011;10958;50.892;3.992;2023-05-29T05:10:00;15.52;;;3.17;;
21591;SDS011;10958;50.892;3.992;2023-05-29T05:12:26;11.50;;;2.88;;
21591;SDS011;10958;50.892;3.992;2023-05-29T05:14:51;11.73;;;2.53;;
21591;SDS011;10958;50.892;3.992;2023-05-29T05:17:17;16.70;;;3.17;;
21591;SDS011;10958;50.892;3.992;2023-05-29T05:19:43;17.35;;;3.15;;
21591;SDS011;10958;50.892;3.992;2023-05-29T05:22:08;15.23;;;2.72;;
21591;SDS011;10958;50.892;3.992;2023-05-29T05:24:34;16.40;;;3.08;;
21591;SDS011;10958;50.892;3.992;2023-05-29T05:27:01;10.70;;;2.88;;
21591;SDS011;10958;50.892;3.992;2023-05-29T05:29:27;15.82;;;2.80;;
21591;SDS011;10958;50.892;3.992;2023-05-29T05:31:52;15.45;;;3.50;;
21591;SDS011;10958;50.892;3.992;2023-05-29T05:34:20;15.05;;;2.75;;
21591;SDS011;10958;50.892;3.992;2023-05-29T05:36:46;15.15;;;3.47;;
21591;SDS011;10958;50.892;3.992;2023-05-29T05:39:15;16.65;;;2.90;;
21591;SDS011;10958;50.892;3.992;2023-05-29T05:41:41;18.73;;;3.92;;
21591;SDS011;10958;50.892;3.992;2023-05-29T05:44:07;19.35;;;2.72;;
21591;SDS011;10958;50.892;3.992;2023-05-29T05:51:43;14.60;;;2.53;;
21591;SDS011;10958;50.892;3.992;2023-05-29T05:54:09;12.57;;;2.40;;
21591;SDS011;10958;50.892;3.992;2023-05-29T05:56:35;10.65;;;3.20;;
21591;SDS011;10958;50.892;3.992;2023-05-29T05:59:01;10.80;;;2.50;;
21591;SDS011;10958;50.892;3.992;2023-05-29T06:01:27;11.95;;;2.88;;
21591;SDS011;10958;50.892;3.992;2023-05-29T06:03:53;12.15;;;2.90;;
21591;SDS011;10958;50.892;3.992;2023-05-29T06:06:19;19.38;;;2.78;;
21591;SDS011;10958;50.892;3.992;2023-05-29T06:08:46;13.80;;;2.90;;
21591;SDS011;10958;50.892;3.992;2023-05-29T06:11:12;10.68;;;3.33;;
21591;SDS011;10958;50.892;3.992;2023-05-29T06:13:37;12.60;;;2.70;;
21591;SDS011;10958;50.892;3.992;2023-05-29T06:16:04;17.67;;;2.65;;
21591;SDS011;10958;50.892;3.992;2023-05-29T06:18:30;11.85;;;2.78;;
21591;SDS011;10958;50.892;3.992;2023-05-29T06:20:56;10.75;;;2.25;;
21591;SDS011;10958;50.892;3.992;2023-05-29T06:23:22;13.85;;;2.78;;
21591;SDS011;10958;50.892;3.992;2023-05-29T06:25:48;11.65;;;2.70;;
21591;SDS011;10958;50.892;3.992;2023-05-29T06:28:14;10.23;;;2.50;;
21591;SDS011;10958;50.892;3.992;2023-05-29T06:30:40;9.65;;;2.25;;
21591;SDS011;10958;50.892;3.992;2023-05-29T06:33:07;15.95;;;2.83;;
21591;SDS011;10958;50.892;3.992;2023-05-29T06:35:32;8.60;;;2.13;;
21591;SDS011;10958;50.892;3.992;2023-05-29T06:38:01;11.63;;;3.03;;
21591;SDS011;10958;50.892;3.992;2023-05-29T06:40:26;13.23;;;2.53;;
21591;SDS011;10958;50.892;3.992;2023-05-29T06:42:52;12.43;;;2.67;;
21591;SDS011;10958;50.892;3.992;2023-05-29T06:45:17;11.43;;;2.50;;
21591;SDS011;10958;50.892;3.992;2023-05-29T06:47:43;11.75;;;2.25;;
21591;SDS011;10958;50.892;3.992;2023-05-29T06:50:09;12.68;;;2.75;;
21591;SDS011;10958;50.892;3.992;2023-05-29T06:52:35;9.98;;;2.45;;
21591;SDS011;10958;50.892;3.992;2023-05-29T06:55:01;9.65;;;2.72;;
21591;SDS011;10958;50.892;3.992;2023-05-29T06:57:27;11.13;;;2.85;;
21591;SDS011;10958;50.892;3.992;2023-05-29T06:59:56;12.80;;;2.42;;
21591;SDS011;10958;50.892;3.992;2023-05-29T07:02:22;8.18;;;2.30;;
21591;SDS011;10958;50.892;3.992;2023-05-29T07:04:47;9.50;;;2.38;;
21591;SDS011;10958;50.892;3.992;2023-05-29T07:07:13;9.30;;;2.30;;
21591;SDS011;10958;50.892;3.992;2023-05-29T07:09:41;9.30;;;1.90;;
21591;SDS011;10958;50.892;3.992;2023-05-29T07:12:07;8.60;;;2.27;;
21591;SDS011;10958;50.892;3.992;2023-05-29T07:14:33;10.35;;;2.20;;
21591;SDS011;10958;50.892;3.992;2023-05-29T07:16:59;11.80;;;2.20;;
21591;SDS011;10958;50.892;3.992;2023-05-29T07:19:25;7.60;;;2.60;;
21591;SDS011;10958;50.892;3.992;2023-05-29T07:21:51;9.63;;;2.28;;
21591;SDS011;10958;50.892;3.992;2023-05-29T07:24:17;10.93;;;2.58;;
21591;SDS011;10958;50.892;3.992;2023-05-29T07:26:43;8.02;;;2.42;;
21591;SDS011;10958;50.892;3.992;2023-05-29T07:29:09;8.23;;;2.13;;
21591;SDS011;10958;50.892;3.992;2023-05-29T07:31:35;8.57;;;2.00;;
21591;SDS011;10958;50.892;3.992;2023-05-29T07:34:01;10.23;;;2.63;;
21591;SDS011;10958;50.892;3.992;2023-05-29T07:36:29;7.45;;;2.42;;
21591;SDS011;10958;50.892;3.992;2023-05-29T07:38:56;6.30;;;2.00;;
21591;SDS011;10958;50.892;3.992;2023-05-29T07:41:23;7.97;;;2.15;;
21591;SDS011;10958;50.892;3.992;2023-05-29T07:43:49;7.65;;;2.38;;
21591;SDS011;10958;50.892;3.992;2023-05-29T07:46:17;11.57;;;2.55;;
21591;SDS011;10958;50.892;3.992;2023-05-29T07:48:44;7.78;;;2.08;;
21591;SDS011;10958;50.892;3.992;2023-05-29T07:51:11;11.70;;;2.40;;
21591;SDS011;10958;50.892;3.992;2023-05-29T07:53:38;9.57;;;2.50;;
21591;SDS011;10958;50.892;3.992;2023-05-29T07:56:04;7.40;;;1.90;;
21591;SDS011;10958;50.892;3.992;2023-05-29T07:58:30;12.70;;;2.40;;
21591;SDS011;10958;50.892;3.992;2023-05-29T08:00:55;11.60;;;2.40;;
21591;SDS011;10958;50.892;3.992;2023-05-29T08:03:24;5.50;;;1.90;;
21591;SDS011;10958;50.892;3.992;2023-05-29T08:05:52;9.40;;;2.70;;
21591;SDS011;10958;50.892;3.992;2023-05-29T08:08:17;12.15;;;2.28;;
21591;SDS011;10958;50.892;3.992;2023-05-29T08:10:44;9.65;;;2.53;;
21591;SDS011;10958;50.892;3.992;2023-05-29T08:13:13;9.63;;;2.00;;
21591;SDS011;10958;50.892;3.992;2023-05-29T08:15:39;10.35;;;2.47;;
21591;SDS011;10958;50.892;3.992;2023-05-29T08:18:04;9.00;;;2.65;;
21591;SDS011;10958;50.892;3.992;2023-05-29T08:20:30;8.90;;;2.58;;
21591;SDS011;10958;50.892;3.992;2023-05-29T08:22:56;6.75;;;2.33;;
21591;SDS011;10958;50.892;3.992;2023-05-29T08:25:21;8.73;;;2.40;;
21591;SDS011;10958;50.892;3.992;2023-05-29T08:27:47;8.02;;;2.33;;
21591;SDS011;10958;50.892;3.992;2023-05-29T08:30:14;7.53;;;2.35;;
21591;SDS011;10958;50.892;3.992;2023-05-29T08:32:39;8.68;;;2.22;;
21591;SDS011;10958;50.892;3.992;2023-05-29T08:35:05;9.75;;;2.05;;
21591;SDS011;10958;50.892;3.992;2023-05-29T08:37:34;11.23;;;2.53;;
21591;SDS011;10958;50.892;3.992;2023-05-29T08:39:59;8.40;;;1.95;;
21591;SDS011;10958;50.892;3.992;2023-05-29T08:42:29;8.80;;;2.30;;
21591;SDS011;10958;50.892;3.992;2023-05-29T08:44:58;8.13;;;2.08;;
21591;SDS011;10958;50.892;3.992;2023-05-29T08:47:32;10.82;;;2.22;;
21591;SDS011;10958;50.892;3.992;2023-05-29T08:50:01;13.35;;;3.00;;
21591;SDS011;10958;50.892;3.992;2023-05-29T08:52:28;12.02;;;2.58;;
21591;SDS011;10958;50.892;3.992;2023-05-29T08:54:57;9.25;;;2.58;;
21591;SDS011;10958;50.892;3.992;2023-05-29T08:57:28;8.00;;;2.10;;
21591;SDS011;10958;50.892;3.992;2023-05-29T08:59:54;9.40;;;2.65;;
21591;SDS011;10958;50.892;3.992;2023-05-29T09:02:21;13.23;;;2.90;;
21591;SDS011;10958;50.892;3.992;2023-05-29T09:04:47;10.38;;;2.25;;
21591;SDS011;10958;50.892;3.992;2023-05-29T09:07:19;9.18;;;2.15;;
21591;SDS011;10958;50.892;3.992;2023-05-29T09:09:45;12.15;;;2.67;;
21591;SDS011;10958;50.892;3.992;2023-05-29T09:12:11;8.57;;;2.95;;
21591;SDS011;10958;50.892;3.992;2023-05-29T09:14:41;10.45;;;2.50;;
21591;SDS011;10958;50.892;3.992;2023-05-29T09:17:09;7.75;;;2.30;;
21591;SDS011;10958;50.892;3.992;2023-05-29T09:19:35;11.20;;;2.47;;
21591;SDS011;10958;50.892;3.992;2023-05-29T09:22:06;9.02;;;2.28;;
21591;SDS011;10958;50.892;3.992;2023-05-29T09:24:35;8.25;;;2.00;;
21591;SDS011;10958;50.892;3.992;2023-05-29T09:27:02;10.48;;;2.63;;
21591;SDS011;10958;50.892;3.992;2023-05-29T09:29:42;10.77;;;2.40;;
21591;SDS011;10958;50.892;3.992;2023-05-29T09:32:10;7.20;;;2.20;;
21591;SDS011;10958;50.892;3.992;2023-05-29T09:34:41;9.18;;;2.42;;
21591;SDS011;10958;50.892;3.992;2023-05-29T09:37:08;7.75;;;1.92;;
21591;SDS011;10958;50.892;3.992;2023-05-29T09:42:09;10.07;;;2.38;;
21591;SDS011;10958;50.892;3.992;2023-05-29T09:44:37;9.90;;;2.17;;
21591;SDS011;10958;50.892;3.992;2023-05-29T09:47:05;5.32;;;2.00;;
21591;SDS011;10958;50.892;3.992;2023-05-29T09:49:31;14.02;;;2.78;;
21591;SDS011;10958;50.892;3.992;2023-05-29T09:51:57;11.10;;;2.45;;
21591;SDS011;10958;50.892;3.992;2023-05-29T09:54:26;10.55;;;2.80;;
21591;SDS011;10958;50.892;3.992;2023-05-29T09:56:56;7.18;;;2.53;;
21591;SDS011;10958;50.892;3.992;2023-05-29T09:59:23;10.35;;;2.60;;
21591;SDS011;10958;50.892;3.992;2023-05-29T10:01:55;10.43;;;2.17;;
21591;SDS011;10958;50.892;3.992;2023-05-29T10:06:55;15.30;;;2.67;;
21591;SDS011;10958;50.892;3.992;2023-05-29T10:09:21;8.32;;;2.50;;
21591;SDS011;10958;50.892;3.992;2023-05-29T10:11:51;15.77;;;2.30;;
21591;SDS011;10958;50.892;3.992;2023-05-29T10:14:25;11.35;;;2.88;;
21591;SDS011;10958;50.892;3.992;2023-05-29T10:16:53;12.13;;;2.78;;
21591;SDS011;10958;50.892;3.992;2023-05-29T10:19:24;10.63;;;2.53;;
21591;SDS011;10958;50.892;3.992;2023-05-29T10:21:52;9.52;;;2.40;;
21591;SDS011;10958;50.892;3.992;2023-05-29T10:24:22;10.05;;;2.28;;
21591;SDS011;10958;50.892;3.992;2023-05-29T10:26:50;9.35;;;2.35;;
21591;SDS011;10958;50.892;3.992;2023-05-29T10:38:02;10.43;;;2.28;;
21591;SDS011;10958;50.892;3.992;2023-05-29T10:40:08;9.05;;;2.60;;
21591;SDS011;10958;50.892;3.992;2023-05-29T10:42:48;10.95;;;2.53;;
21591;SDS011;10958;50.892;3.992;2023-05-29T10:50:37;10.93;;;2.63;;
21591;SDS011;10958;50.892;3.992;2023-05-29T10:53:10;10.20;;;2.13;;
21591;SDS011;10958;50.892;3.992;2023-05-29T10:55:40;8.98;;;2.60;;
21591;SDS011;10958;50.892;3.992;2023-05-29T10:58:06;6.90;;;2.20;;
21591;SDS011;10958;50.892;3.992;2023-05-29T11:00:39;9.73;;;2.47;;
21591;SDS011;10958;50.892;3.992;2023-05-29T11:03:07;7.85;;;2.28;;
21591;SDS011;10958;50.892;3.992;2023-05-29T11:05:33;14.00;;;2.55;;
21591;SDS011;10958;50.892;3.992;2023-05-29T11:08:00;9.27;;;4.40;;
21591;SDS011;10958;50.892;3.992;2023-05-29T11:13:24;14.55;;;2.45;;
21591;SDS011;10958;50.892;3.992;2023-05-29T11:18:45;13.98;;;2.70;;
21591;SDS011;10958;50.892;3.992;2023-05-29T11:24:04;9.57;;;2.30;;
21591;SDS011;10958;50.892;3.992;2023-05-29T11:26:34;8.13;;;2.15;;
21591;SDS011;10958;50.892;3.992;2023-05-29T11:29:05;8.35;;;2.30;;
21591;SDS011;10958;50.892;3.992;2023-05-29T11:31:35;10.40;;;2.40;;
21591;SDS011;10958;50.892;3.992;2023-05-29T11:36:33;8.80;;;2.42;;
21591;SDS011;10958;50.892;3.992;2023-05-29T11:39:00;6.20;;;2.42;;
21591;SDS011;10958;50.892;3.992;2023-05-29T11:41:26;8.27;;;2.10;;
21591;SDS011;10958;50.892;3.992;2023-05-29T11:43:59;7.65;;;2.33;;
21591;SDS011;10958;50.892;3.992;2023-05-29T11:46:27;10.38;;;2.50;;
21591;SDS011;10958;50.892;3.992;2023-05-29T11:48:57;8.85;;;2.35;;
21591;SDS011;10958;50.892;3.992;2023-05-29T11:51:25;5.50;;;2.00;;
21591;SDS011;10958;50.892;3.992;2023-05-29T11:53:51;10.73;;;2.50;;
21591;SDS011;10958;50.892;3.992;2023-05-29T11:56:22;7.47;;;2.28;;
21591;SDS011;10958;50.892;3.992;2023-05-29T11:58:51;7.95;;;2.47;;
21591;SDS011;10958;50.892;3.992;2023-05-29T12:01:22;9.05;;;2.22;;
21591;SDS011;10958;50.892;3.992;2023-05-29T12:03:52;14.55;;;2.72;;
21591;SDS011;10958;50.892;3.992;2023-05-29T12:06:30;10.50;;;2.50;;
21591;SDS011;10958;50.892;3.992;2023-05-29T12:08:58;9.30;;;2.50;;
21591;SDS011;10958;50.892;3.992;2023-05-29T12:11:26;9.98;;;2.47;;
21591;SDS011;10958;50.892;3.992;2023-05-29T12:13:56;11.18;;;2.40;;
21591;SDS011;10958;50.892;3.992;2023-05-29T12:16:25;11.20;;;2.15;;
21591;SDS011;10958;50.892;3.992;2023-05-29T12:18:53;12.33;;;2.67;;
21591;SDS011;10958;50.892;3.992;2023-05-29T12:21:19;13.30;;;2.55;;
21591;SDS011;10958;50.892;3.992;2023-05-29T12:23:46;6.88;;;1.90;;
21591;SDS011;10958;50.892;3.992;2023-05-29T12:26:12;6.72;;;1.90;;
21591;SDS011;10958;50.892;3.992;2023-05-29T12:28:44;7.43;;;2.17;;
21591;SDS011;10958;50.892;3.992;2023-05-29T12:31:12;9.07;;;2.22;;
21591;SDS011;10958;50.892;3.992;2023-05-29T12:33:42;12.85;;;2.50;;
21591;SDS011;10958;50.892;3.992;2023-05-29T12:36:09;6.15;;;2.33;;
21591;SDS011;10958;50.892;3.992;2023-05-29T12:38:46;4.72;;;2.10;;
21591;SDS011;10958;50.892;3.992;2023-05-29T12:43:53;10.02;;;2.42;;
21591;SDS011;10958;50.892;3.992;2023-05-29T12:46:20;11.05;;;2.85;;
21591;SDS011;10958;50.892;3.992;2023-05-29T12:48:46;7.63;;;2.50;;
21591;SDS011;10958;50.892;3.992;2023-05-29T12:51:15;14.02;;;2.50;;
21591;SDS011;10958;50.892;3.992;2023-05-29T12:53:43;11.52;;;2.85;;
21591;SDS011;10958;50.892;3.992;2023-05-29T12:56:09;5.60;;;2.53;;
21591;SDS011;10958;50.892;3.992;2023-05-29T12:58:35;9.80;;;2.33;;
21591;SDS011;10958;50.892;3.992;2023-05-29T13:01:11;8.98;;;2.20;;
21591;SDS011;10958;50.892;3.992;2023-05-29T13:03:38;7.70;;;2.35;;
21591;SDS011;10958;50.892;3.992;2023-05-29T13:06:04;8.73;;;2.40;;
21591;SDS011;10958;50.892;3.992;2023-05-29T13:08:30;8.15;;;2.25;;
21591;SDS011;10958;50.892;3.992;2023-05-29T13:10:56;7.47;;;2.60;;
21591;SDS011;10958;50.892;3.992;2023-05-29T13:14:41;8.93;;;2.30;;
21591;SDS011;10958;50.892;3.992;2023-05-29T13:17:07;5.93;;;2.45;;
21591;SDS011;10958;50.892;3.992;2023-05-29T13:19:35;8.77;;;2.45;;
21591;SDS011;10958;50.892;3.992;2023-05-29T13:22:01;8.45;;;2.70;;
21591;SDS011;10958;50.892;3.992;2023-05-29T13:24:29;10.35;;;3.05;;
21591;SDS011;10958;50.892;3.992;2023-05-29T13:26:55;6.93;;;2.22;;
21591;SDS011;10958;50.892;3.992;2023-05-29T13:29:21;8.00;;;2.88;;
21591;SDS011;10958;50.892;3.992;2023-05-29T13:31:47;7.53;;;2.25;;
21591;SDS011;10958;50.892;3.992;2023-05-29T13:34:12;7.30;;;2.28;;
21591;SDS011;10958;50.892;3.992;2023-05-29T13:36:38;10.73;;;2.75;;
21591;SDS011;10958;50.892;3.992;2023-05-29T13:39:04;7.43;;;2.60;;
21591;SDS011;10958;50.892;3.992;2023-05-29T13:41:31;6.60;;;2.88;;
21591;SDS011;10958;50.892;3.992;2023-05-29T13:44:00;7.68;;;2.78;;
21591;SDS011;10958;50.892;3.992;2023-05-29T13:46:26;15.27;;;2.95;;
21591;SDS011;10958;50.892;3.992;2023-05-29T13:48:52;12.25;;;3.03;;
21591;SDS011;10958;50.892;3.992;2023-05-29T13:51:18;8.80;;;2.83;;
21591;SDS011;10958;50.892;3.992;2023-05-29T13:53:46;7.13;;;2.60;;
21591;SDS011;10958;50.892;3.992;2023-05-29T13:56:12;12.52;;;3.03;;
21591;SDS011;10958;50.892;3.992;2023-05-29T13:58:37;11.25;;;2.65;;
21591;SDS011;10958;50.892;3.992;2023-05-29T14:01:04;13.15;;;3.13;;
21591;SDS011;10958;50.892;3.992;2023-05-29T14:03:29;6.70;;;2.40;;
21591;SDS011;10958;50.892;3.992;2023-05-29T14:05:56;7.35;;;2.58;;
21591;SDS011;10958;50.892;3.992;2023-05-29T14:08:22;15.38;;;2.67;;
21591;SDS011;10958;50.892;3.992;2023-05-29T14:10:48;12.68;;;2.90;;
21591;SDS011;10958;50.892;3.992;2023-05-29T14:13:15;8.32;;;2.58;;
21591;SDS011;10958;50.892;3.992;2023-05-29T14:15:46;7.40;;;2.80;;
21591;SDS011;10958;50.892;3.992;2023-05-29T14:18:13;7.78;;;2.33;;
21591;SDS011;10958;50.892;3.992;2023-05-29T14:20:39;9.80;;;3.35;;
21591;SDS011;10958;50.892;3.992;2023-05-29T14:23:12;8.85;;;2.72;;
21591;SDS011;10958;50.892;3.992;2023-05-29T14:25:40;9.15;;;2.58;;
21591;SDS011;10958;50.892;3.992;2023-05-29T14:28:06;9.45;;;2.85;;
21591;SDS011;10958;50.892;3.992;2023-05-29T14:30:32;6.47;;;2.90;;
21591;SDS011;10958;50.892;3.992;2023-05-29T14:32:58;12.32;;;3.08;;
21591;SDS011;10958;50.892;3.992;2023-05-29T14:35:25;8.68;;;2.70;;
21591;SDS011;10958;50.892;3.992;2023-05-29T14:37:50;15.32;;;3.00;;
21591;SDS011;10958;50.892;3.992;2023-05-29T14:40:16;6.63;;;2.50;;
21591;SDS011;10958;50.892;3.992;2023-05-29T14:42:42;8.30;;;2.75;;
21591;SDS011;10958;50.892;3.992;2023-05-29T14:45:08;11.77;;;2.80;;
21591;SDS011;10958;50.892;3.992;2023-05-29T14:47:34;11.70;;;2.67;;
21591;SDS011;10958;50.892;3.992;2023-05-29T14:50:00;8.35;;;3.22;;
21591;SDS011;10958;50.892;3.992;2023-05-29T14:52:31;10.75;;;3.33;;
21591;SDS011;10958;50.892;3.992;2023-05-29T14:55:01;9.25;;;3.30;;
21591;SDS011;10958;50.892;3.992;2023-05-29T14:57:27;7.00;;;2.70;;
21591;SDS011;10958;50.892;3.992;2023-05-29T14:59:55;11.35;;;3.60;;
21591;SDS011;10958;50.892;3.992;2023-05-29T15:02:20;9.82;;;3.67;;
21591;SDS011;10958;50.892;3.992;2023-05-29T15:04:46;10.23;;;4.22;;
21591;SDS011;10958;50.892;3.992;2023-05-29T15:07:12;10.70;;;4.03;;
21591;SDS011;10958;50.892;3.992;2023-05-29T15:09:37;8.73;;;3.10;;
21591;SDS011;10958;50.892;3.992;2023-05-29T15:12:03;10.15;;;3.42;;
21591;SDS011;10958;50.892;3.992;2023-05-29T15:14:32;10.45;;;3.20;;
21591;SDS011;10958;50.892;3.992;2023-05-29T15:16:57;5.70;;;2.90;;
21591;SDS011;10958;50.892;3.992;2023-05-29T15:19:23;10.88;;;2.65;;
21591;SDS011;10958;50.892;3.992;2023-05-29T15:21:49;11.13;;;3.05;;
21591;SDS011;10958;50.892;3.992;2023-05-29T15:24:14;9.35;;;2.80;;
21591;SDS011;10958;50.892;3.992;2023-05-29T15:26:40;7.32;;;2.58;;